createdAt,value
2022-10-09T00:02:33.119Z,5.50
2022-10-09T00:05:25.116Z,5.43
2022-10-09T00:08:15.759Z,5.20
2022-10-09T00:11:15.507Z,5.20
2022-10-09T00:14:07.020Z,5.30
2022-10-09T00:16:57.396Z,4.82
2022-10-09T00:19:48.817Z,5.20
2022-10-09T00:22:39.119Z,5.00
2022-10-09T00:25:30.669Z,4.95
2022-10-09T00:28:20.994Z,5.38
2022-10-09T00:31:13.598Z,4.50
2022-10-09T00:34:04.257Z,4.80
2022-10-09T00:36:55.010Z,4.82
2022-10-09T00:39:46.205Z,5.00
2022-10-09T00:42:37.849Z,4.20
2022-10-09T00:45:28.667Z,4.10
2022-10-09T00:48:20.030Z,4.30
2022-10-09T00:51:10.871Z,4.30
2022-10-09T00:54:02.269Z,4.60
2022-10-09T00:56:53.655Z,4.13
2022-10-09T00:59:44.634Z,4.50
2022-10-09T01:02:35.519Z,4.22
2022-10-09T01:05:35.908Z,4.70
2022-10-09T01:08:33.185Z,4.32
2022-10-09T01:11:44.720Z,4.20
2022-10-09T01:14:46.502Z,4.22
2022-10-09T01:18:05.701Z,4.00
2022-10-09T01:20:58.577Z,4.10
2022-10-09T01:24:01.829Z,3.80
2022-10-09T01:27:21.507Z,3.90
2022-10-09T01:30:14.749Z,4.18
2022-10-09T01:33:07.795Z,4.45
2022-10-09T01:35:59.583Z,4.30
2022-10-09T01:38:50.832Z,3.63
2022-10-09T01:41:41.329Z,2.70
2022-10-09T01:44:33.798Z,3.25
2022-10-09T01:47:27.030Z,2.80
2022-10-09T01:50:22.652Z,2.60
2022-10-09T01:53:19.570Z,2.33
2022-10-09T01:56:17.050Z,2.70
2022-10-09T01:59:16.383Z,2.80
2022-10-09T02:02:08.292Z,2.80
2022-10-09T02:05:00.260Z,2.75
2022-10-09T02:07:52.125Z,2.50
2022-10-09T02:10:42.952Z,2.97
2022-10-09T02:13:38.538Z,2.42
2022-10-09T02:16:39.464Z,2.60
2022-10-09T02:19:53.413Z,2.30
2022-10-09T02:22:44.278Z,2.65
2022-10-09T02:25:36.266Z,2.97
2022-10-09T02:28:27.429Z,2.38
2022-10-09T02:31:30.540Z,2.50
2022-10-09T02:34:22.795Z,2.85
2022-10-09T02:40:06.963Z,2.63
2022-10-09T02:43:00.385Z,2.83
2022-10-09T02:45:50.176Z,2.92
2022-10-09T02:48:39.614Z,2.40
2022-10-09T02:51:31.673Z,2.55
2022-10-09T02:57:10.240Z,3.00
2022-10-09T02:59:59.594Z,2.88
2022-10-09T03:02:49.295Z,2.53
2022-10-09T03:05:38.825Z,2.38
2022-10-09T03:08:28.450Z,2.40
2022-10-09T03:11:19.701Z,2.75
2022-10-09T03:14:10.202Z,2.40
2022-10-09T03:16:59.805Z,2.67
2022-10-09T03:19:49.244Z,2.22
2022-10-09T03:22:38.889Z,2.40
2022-10-09T03:25:28.269Z,2.47
2022-10-09T03:28:17.585Z,2.75
2022-10-09T03:31:07.250Z,2.70
2022-10-09T03:33:56.684Z,2.60
2022-10-09T03:36:46.354Z,2.38
2022-10-09T03:39:36.135Z,2.53
2022-10-09T03:42:26.238Z,2.97
2022-10-09T03:45:15.615Z,2.83
2022-10-09T03:48:05.245Z,3.10
2022-10-09T03:50:54.770Z,2.60
2022-10-09T03:53:44.112Z,2.60
2022-10-09T03:56:33.797Z,2.88
2022-10-09T03:59:23.291Z,2.58
2022-10-09T04:02:12.672Z,2.80
2022-10-09T04:05:02.128Z,3.03
2022-10-09T04:07:51.745Z,3.15
2022-10-09T04:10:41.341Z,3.58
2022-10-09T04:13:31.209Z,3.40
2022-10-09T04:16:20.642Z,3.40
2022-10-09T04:19:10.120Z,3.00
2022-10-09T04:21:59.562Z,3.30
2022-10-09T04:24:49.120Z,4.03
2022-10-09T04:27:38.617Z,2.88
2022-10-09T04:30:28.153Z,3.25
2022-10-09T04:33:17.839Z,3.35
2022-10-09T04:36:07.742Z,3.22
2022-10-09T04:38:57.449Z,3.55
2022-10-09T04:41:46.829Z,2.97
2022-10-09T04:44:36.312Z,3.33
2022-10-09T04:47:25.656Z,3.70
2022-10-09T04:50:16.608Z,3.30
2022-10-09T04:53:19.536Z,3.78
2022-10-09T04:56:12.030Z,3.40
2022-10-09T04:59:01.481Z,3.60
2022-10-09T05:01:51.038Z,3.35
2022-10-09T05:04:40.778Z,3.10
2022-10-09T05:07:30.449Z,3.53
2022-10-09T05:10:19.787Z,3.53
2022-10-09T05:13:09.212Z,3.50
2022-10-09T05:16:02.578Z,3.40
2022-10-09T05:18:55.509Z,4.00
2022-10-09T05:21:44.966Z,3.35
2022-10-09T05:24:34.621Z,3.40
2022-10-09T05:27:24.266Z,3.85
2022-10-09T05:30:14.405Z,3.60
2022-10-09T05:33:04.273Z,3.72
2022-10-09T05:35:55.856Z,3.70
2022-10-09T05:38:45.782Z,4.38
2022-10-09T05:41:35.210Z,3.58
2022-10-09T05:44:24.786Z,3.58
2022-10-09T05:47:18.945Z,3.92
2022-10-09T05:50:08.798Z,3.70
2022-10-09T05:52:58.400Z,4.18
2022-10-09T05:55:48.021Z,4.15
2022-10-09T05:58:37.401Z,3.70
2022-10-09T06:01:29.430Z,3.95
2022-10-09T06:04:27.859Z,3.80
2022-10-09T06:07:17.461Z,4.22
2022-10-09T06:10:07.485Z,4.38
2022-10-09T06:12:57.642Z,4.00
2022-10-09T06:15:55.030Z,4.10
2022-10-09T06:18:50.367Z,3.70
2022-10-09T06:21:40.492Z,3.78
2022-10-09T06:24:29.944Z,3.60
2022-10-09T06:27:19.421Z,4.10
2022-10-09T06:30:09.918Z,3.92
2022-10-09T06:32:59.382Z,4.20
2022-10-09T06:35:48.931Z,4.20
2022-10-09T06:38:39.910Z,4.13
2022-10-09T06:41:30.941Z,4.10
2022-10-09T06:44:20.345Z,3.78
2022-10-09T06:47:12.319Z,4.00
2022-10-09T06:50:01.781Z,3.78
2022-10-09T06:52:53.426Z,4.53
2022-10-09T06:55:56.282Z,4.10
2022-10-09T06:58:46.701Z,4.10
2022-10-09T07:01:36.731Z,4.82
2022-10-09T07:04:26.583Z,4.68
2022-10-09T07:07:18.082Z,4.40
2022-10-09T07:12:57.562Z,4.10
2022-10-09T07:15:47.339Z,4.40
2022-10-09T07:18:37.621Z,4.25
2022-10-09T07:21:26.946Z,4.28
2022-10-09T07:24:17.811Z,4.38
2022-10-09T07:27:07.565Z,4.53
2022-10-09T07:29:57.050Z,4.50
2022-10-09T07:32:46.645Z,4.13
2022-10-09T07:35:36.450Z,4.55
2022-10-09T07:38:26.621Z,4.47
2022-10-09T07:41:16.141Z,4.30
2022-10-09T07:44:05.875Z,4.20
2022-10-09T07:46:55.703Z,4.28
2022-10-09T07:49:44.951Z,4.13
2022-10-09T07:52:34.342Z,4.47
2022-10-09T07:55:26.713Z,4.38
2022-10-09T08:01:10.339Z,4.05
2022-10-09T08:04:01.290Z,3.95
2022-10-09T08:06:51.038Z,3.92
2022-10-09T08:09:41.577Z,4.40
2022-10-09T08:12:31.193Z,3.88
2022-10-09T08:15:20.753Z,4.30
2022-10-09T08:18:11.221Z,4.40
2022-10-09T08:21:02.098Z,4.05
2022-10-09T08:23:55.501Z,4.07
2022-10-09T08:26:45.408Z,4.18
2022-10-09T08:29:39.955Z,4.38
2022-10-09T08:32:29.970Z,3.80
2022-10-09T08:35:19.384Z,3.80
2022-10-09T08:38:17.720Z,3.88
2022-10-09T08:41:47.708Z,4.00
2022-10-09T08:44:48.033Z,4.00
2022-10-09T08:47:44.608Z,3.90
2022-10-09T08:50:39.932Z,3.85
2022-10-09T08:54:18.277Z,4.20
2022-10-09T08:57:15.584Z,4.07
2022-10-09T09:00:15.345Z,4.00
2022-10-09T09:03:49.276Z,3.83
2022-10-09T09:07:01.942Z,3.85
2022-10-09T09:12:52.116Z,4.07
2022-10-09T09:16:07.483Z,3.80
2022-10-09T09:19:39.634Z,3.72
2022-10-09T09:22:29.645Z,3.80
2022-10-09T09:25:32.393Z,4.28
2022-10-09T09:28:25.794Z,3.88
2022-10-09T09:31:26.258Z,3.90
2022-10-09T09:34:20.931Z,3.80
2022-10-09T09:37:13.456Z,3.50
2022-10-09T09:43:23.993Z,3.95
2022-10-09T09:46:20.338Z,3.85
2022-10-09T09:49:21.861Z,3.72
2022-10-09T09:52:11.421Z,3.47
2022-10-09T09:55:01.079Z,3.72
2022-10-09T09:57:51.353Z,3.60
2022-10-09T10:00:41.268Z,3.70
2022-10-09T10:03:32.222Z,3.97
2022-10-09T10:06:35.169Z,3.55
2022-10-09T10:09:24.661Z,3.25
2022-10-09T10:12:17.906Z,3.55
2022-10-09T10:15:07.999Z,3.45
2022-10-09T10:18:13.647Z,3.70
2022-10-09T10:21:14.329Z,3.45
2022-10-09T10:24:10.292Z,3.50
2022-10-09T10:27:07.745Z,3.30
2022-10-09T10:30:03.621Z,3.45
2022-10-09T10:33:14.625Z,3.70
2022-10-09T10:36:04.229Z,3.65
2022-10-09T10:39:03.482Z,3.60
2022-10-09T10:41:56.265Z,3.33
2022-10-09T10:44:56.262Z,3.40
2022-10-09T10:47:53.822Z,3.20
2022-10-09T10:51:07.784Z,3.33
2022-10-09T10:54:28.067Z,3.17
2022-10-09T10:57:28.239Z,3.20
2022-10-09T11:00:18.572Z,3.00
2022-10-09T11:03:32.132Z,3.60
2022-10-09T11:06:32.715Z,3.05
2022-10-09T11:10:00.466Z,3.13
2022-10-09T11:12:52.342Z,3.50
2022-10-09T11:16:02.937Z,3.20
2022-10-09T11:19:18.145Z,2.85
2022-10-09T11:22:26.541Z,3.20
2022-10-09T11:25:24.630Z,2.97
2022-10-09T11:28:44.588Z,3.05
2022-10-09T11:31:48.110Z,3.25
2022-10-09T11:34:46.226Z,2.80
2022-10-09T11:37:40.380Z,3.28
2022-10-09T11:40:36.346Z,3.28
2022-10-09T11:43:29.640Z,3.17
2022-10-09T11:47:04.737Z,3.03
2022-10-09T11:50:19.864Z,3.08
2022-10-09T11:53:19.017Z,3.25
2022-10-09T11:56:20.397Z,2.90
2022-10-09T11:59:22.152Z,3.00
2022-10-09T12:02:27.447Z,2.85
2022-10-09T12:05:20.262Z,2.95
2022-10-09T12:08:19.509Z,3.08
2022-10-09T12:11:17.101Z,3.08
2022-10-09T12:14:09.484Z,3.45
2022-10-09T12:19:51.833Z,3.42
2022-10-09T12:23:13.827Z,3.20
2022-10-09T12:26:01.823Z,3.45
2022-10-09T12:28:59.325Z,3.17
2022-10-09T12:31:51.978Z,3.08
2022-10-09T12:37:37.513Z,2.95
2022-10-09T12:40:30.079Z,3.00
2022-10-09T12:43:22.283Z,3.10
2022-10-09T12:46:11.741Z,3.47
2022-10-09T12:49:03.542Z,3.60
2022-10-09T12:51:56.796Z,3.40
2022-10-09T12:54:46.422Z,3.50
2022-10-09T12:57:36.149Z,3.05
2022-10-09T13:00:25.666Z,3.65
2022-10-09T13:03:38.151Z,3.25
2022-10-09T13:06:39.472Z,3.20
2022-10-09T13:09:41.461Z,3.00
2022-10-09T13:12:32.619Z,3.20
2022-10-09T13:15:40.421Z,3.50
2022-10-09T13:18:30.580Z,3.10
2022-10-09T13:21:29.134Z,3.38
2022-10-09T13:24:21.061Z,3.40
2022-10-09T13:27:13.345Z,3.28
2022-10-09T13:30:03.375Z,3.00
2022-10-09T13:32:52.822Z,3.35
2022-10-09T13:35:42.343Z,3.17
2022-10-09T13:38:34.965Z,3.10
2022-10-09T13:41:26.322Z,3.70
2022-10-09T13:44:15.607Z,3.90
2022-10-09T13:47:04.825Z,3.97
2022-10-09T13:49:54.448Z,2.97
2022-10-09T13:52:44.234Z,3.42
2022-10-09T13:55:33.721Z,3.30
2022-10-09T13:58:24.415Z,3.35
2022-10-09T14:01:17.415Z,3.50
2022-10-09T14:04:07.535Z,3.15
2022-10-09T14:06:57.506Z,3.33
2022-10-09T14:09:47.222Z,3.50
2022-10-09T14:12:36.821Z,3.22
2022-10-09T14:15:27.077Z,3.20
2022-10-09T14:18:16.404Z,3.38
2022-10-09T14:21:17.100Z,3.50
2022-10-09T14:24:08.057Z,3.45
2022-10-09T14:26:57.430Z,3.22
2022-10-09T14:29:51.087Z,3.40
2022-10-09T14:32:42.309Z,3.28
2022-10-09T14:35:32.118Z,3.13
2022-10-09T14:38:21.576Z,3.42
2022-10-09T14:41:11.438Z,3.03
2022-10-09T14:44:01.724Z,3.40
2022-10-09T14:46:51.266Z,3.00
2022-10-09T14:49:40.786Z,2.97
2022-10-09T14:52:30.209Z,3.17
2022-10-09T14:55:19.955Z,3.10
2022-10-09T14:58:09.506Z,2.95
2022-10-09T15:00:59.775Z,3.33
2022-10-09T15:03:50.247Z,3.30
2022-10-09T15:06:39.737Z,3.15
2022-10-09T15:09:29.103Z,3.17
2022-10-09T15:12:19.411Z,3.25
2022-10-09T15:15:11.821Z,2.90
2022-10-09T15:18:01.478Z,3.10
2022-10-09T15:20:50.946Z,3.20
2022-10-09T15:23:40.401Z,3.13
2022-10-09T15:26:31.661Z,3.47
2022-10-09T15:29:21.641Z,3.00
2022-10-09T15:32:11.161Z,2.90
2022-10-09T15:35:00.713Z,3.00
2022-10-09T15:37:52.554Z,5.88
2022-10-09T15:40:50.341Z,3.80
2022-10-09T15:43:41.171Z,5.03
2022-10-09T15:46:31.414Z,4.10
2022-10-09T15:49:20.849Z,4.60
2022-10-09T15:52:10.281Z,5.05
2022-10-09T15:54:59.883Z,4.82
2022-10-09T15:57:49.775Z,5.03
2022-10-09T16:00:43.369Z,5.35
2022-10-09T16:03:36.976Z,4.75
2022-10-09T16:06:26.658Z,4.35
2022-10-09T16:09:16.236Z,4.35
2022-10-09T16:12:06.032Z,5.05
2022-10-09T16:14:55.585Z,4.40
2022-10-09T16:17:45.228Z,4.47
2022-10-09T16:20:41.251Z,4.13
2022-10-09T16:23:31.713Z,4.22
2022-10-09T16:26:22.572Z,4.30
2022-10-09T16:29:13.295Z,3.88
2022-10-09T16:32:02.582Z,4.30
2022-10-09T16:34:52.225Z,3.88
2022-10-09T16:37:43.512Z,4.03
2022-10-09T16:41:00.832Z,4.18
2022-10-09T16:43:45.153Z,3.90
2022-10-09T16:46:36.314Z,4.00
2022-10-09T16:49:28.341Z,4.60
2022-10-09T16:52:17.811Z,3.75
2022-10-09T16:55:07.895Z,3.78
2022-10-09T16:57:57.825Z,4.18
2022-10-09T17:00:47.305Z,4.20
2022-10-09T17:03:36.717Z,3.70
2022-10-09T17:06:27.140Z,3.88
2022-10-09T17:09:16.946Z,3.65
2022-10-09T17:12:08.669Z,3.47
2022-10-09T17:14:58.364Z,3.60
2022-10-09T17:17:49.257Z,3.42
2022-10-09T17:20:40.237Z,3.90
2022-10-09T17:23:29.670Z,3.80
2022-10-09T17:26:21.390Z,3.67
2022-10-09T17:29:15.478Z,3.35
2022-10-09T17:32:08.150Z,4.13
2022-10-09T17:37:46.656Z,3.15
2022-10-09T17:40:42.945Z,3.47
2022-10-09T17:43:32.425Z,3.60
2022-10-09T17:46:23.263Z,3.55
2022-10-09T17:49:12.655Z,3.55
2022-10-09T17:52:02.146Z,3.75
2022-10-09T17:54:51.649Z,3.25
2022-10-09T17:57:41.437Z,3.72
2022-10-09T18:00:32.612Z,3.17
2022-10-09T18:03:22.222Z,3.70
2022-10-09T18:06:14.689Z,3.22
2022-10-09T18:09:05.165Z,3.20
2022-10-09T18:11:54.736Z,3.20
2022-10-09T18:14:44.336Z,3.10
2022-10-09T18:17:35.622Z,3.50
2022-10-09T18:20:27.695Z,4.07
2022-10-09T18:23:21.770Z,3.65
2022-10-09T18:26:15.825Z,3.28
2022-10-09T18:29:07.102Z,3.47
2022-10-09T18:31:59.712Z,3.22
2022-10-09T18:34:49.231Z,3.70
2022-10-09T18:37:38.602Z,3.53
2022-10-09T18:40:28.260Z,3.33
2022-10-09T18:43:17.611Z,3.70
2022-10-09T18:46:07.130Z,3.75
2022-10-09T18:48:57.347Z,3.15
2022-10-09T18:51:48.261Z,3.47
2022-10-09T18:54:38.501Z,3.10
2022-10-09T18:57:28.602Z,3.70
2022-10-09T19:00:18.347Z,3.30
2022-10-09T19:03:08.044Z,3.30
2022-10-09T19:05:58.528Z,3.38
2022-10-09T19:08:48.421Z,3.45
2022-10-09T19:11:37.943Z,3.50
2022-10-09T19:14:27.325Z,3.50
2022-10-09T19:17:17.190Z,3.25
2022-10-09T19:20:07.064Z,3.50
2022-10-09T19:22:58.001Z,3.20
2022-10-09T19:25:52.774Z,3.35
2022-10-09T19:28:42.442Z,3.38
2022-10-09T19:31:33.323Z,3.50
2022-10-09T19:34:23.135Z,3.22
2022-10-09T19:37:12.673Z,3.25
2022-10-09T19:40:02.424Z,3.30
2022-10-09T19:42:53.952Z,3.35
2022-10-09T19:45:44.361Z,3.60
2022-10-09T19:48:34.266Z,3.28
2022-10-09T19:51:26.182Z,3.70
2022-10-09T19:54:15.562Z,3.20
2022-10-09T19:57:05.039Z,3.50
2022-10-09T19:59:55.615Z,2.92
2022-10-09T20:02:45.433Z,3.20
2022-10-09T20:05:35.050Z,3.20
2022-10-09T20:08:24.542Z,3.40
2022-10-09T20:11:15.104Z,3.35
2022-10-09T20:14:05.944Z,3.08
2022-10-09T20:16:55.433Z,3.30
2022-10-09T20:19:45.958Z,3.22
2022-10-09T20:22:35.300Z,3.28
2022-10-09T20:25:25.496Z,3.30
2022-10-09T20:28:16.410Z,3.05
2022-10-09T20:31:08.954Z,3.28
2022-10-09T20:36:48.065Z,3.40
2022-10-09T20:39:37.782Z,3.30
2022-10-09T20:42:27.392Z,3.40
2022-10-09T20:45:16.887Z,3.22
2022-10-09T20:48:10.953Z,3.50
2022-10-09T20:51:01.984Z,3.03
2022-10-09T20:53:56.920Z,3.35
2022-10-09T20:56:46.506Z,3.30
2022-10-09T20:59:35.868Z,3.40
2022-10-09T21:02:26.024Z,3.38
2022-10-09T21:05:15.260Z,3.22
2022-10-09T21:08:05.033Z,3.20
2022-10-09T21:10:54.418Z,3.08
2022-10-09T21:13:45.140Z,3.20
2022-10-09T21:16:34.564Z,3.47
2022-10-09T21:19:23.895Z,2.75
2022-10-09T21:22:13.632Z,3.42
2022-10-09T21:25:03.500Z,3.10
2022-10-09T21:27:53.752Z,3.10
2022-10-09T21:30:43.617Z,3.33
2022-10-09T21:33:32.985Z,3.40
2022-10-09T21:37:01.808Z,3.05
2022-10-09T21:39:52.298Z,3.10
2022-10-09T21:42:43.152Z,3.33
2022-10-09T21:45:32.894Z,2.90
2022-10-09T21:48:22.579Z,3.30
2022-10-09T21:51:12.100Z,3.13
2022-10-09T21:54:01.605Z,3.10
2022-10-09T21:56:51.321Z,6.28
2022-10-09T21:59:41.631Z,7.20
2022-10-09T22:02:31.711Z,6.70
2022-10-09T22:05:21.734Z,6.90
2022-10-09T22:08:11.123Z,6.50
2022-10-09T22:11:00.440Z,7.03
2022-10-09T22:13:50.895Z,7.45
2022-10-09T22:16:40.615Z,7.07
2022-10-09T22:19:30.148Z,6.85
2022-10-09T22:22:19.469Z,7.80
2022-10-09T22:25:09.365Z,7.40
2022-10-09T22:27:58.564Z,6.90
2022-10-09T22:30:47.892Z,6.38
2022-10-09T22:33:37.563Z,6.07
2022-10-09T22:36:30.539Z,5.75
2022-10-09T22:39:20.010Z,6.00
2022-10-09T22:42:09.480Z,5.95
2022-10-09T22:45:00.065Z,5.70
2022-10-09T22:47:49.971Z,3.20
2022-10-09T22:50:39.694Z,3.55
2022-10-09T22:53:29.421Z,3.70
2022-10-09T22:56:27.668Z,3.22
2022-10-09T22:59:19.115Z,3.53
2022-10-09T23:02:08.654Z,3.63
2022-10-09T23:04:57.981Z,4.40
2022-10-09T23:07:48.335Z,4.85
2022-10-09T23:10:42.049Z,5.85
2022-10-09T23:13:31.684Z,6.55
2022-10-09T23:16:21.287Z,6.57
2022-10-09T23:19:11.582Z,7.15
2022-10-09T23:22:01.980Z,6.93
2022-10-09T23:24:51.465Z,6.70
2022-10-09T23:27:40.801Z,6.78
2022-10-09T23:30:31.820Z,7.68
2022-10-09T23:33:21.344Z,7.50
2022-10-09T23:36:13.340Z,8.05
2022-10-09T23:39:04.147Z,8.07
2022-10-09T23:41:53.495Z,8.00
2022-10-09T23:44:42.889Z,7.80
2022-10-09T23:47:32.200Z,7.50
2022-10-09T23:50:24.392Z,7.93
2022-10-09T23:53:13.756Z,8.07
2022-10-09T23:56:06.217Z,8.25
2022-10-09T23:58:57.311Z,8.27
